sensor_id;sensor_type;location;lat;lon;timestamp;temperature;humidity
2465;DHT22;1244;54.326;10.074;2023-02-28T00:00:20;4.20;99.90
2465;DHT22;1244;54.326;10.074;2023-02-28T00:02:46;4.30;99.90
2465;DHT22;1244;54.326;10.074;2023-02-28T00:05:14;4.20;99.90
2465;DHT22;1244;54.326;10.074;2023-02-28T00:07:40;4.30;99.90
2465;DHT22;1244;54.326;10.074;2023-02-28T00:10:11;4.20;99.90
2465;DHT22;1244;54.326;10.074;2023-02-28T00:12:37;4.20;99.90
2465;DHT22;1244;54.326;10.074;2023-02-28T00:15:08;4.00;99.90
2465;DHT22;1244;54.326;10.074;2023-02-28T00:17:34;4.10;99.90
2465;DHT22;1244;54.326;10.074;2023-02-28T00:20:00;4.00;99.90
2465;DHT22;1244;54.326;10.074;2023-02-28T00:22:33;4.00;99.90
2465;DHT22;1244;54.326;10.074;2023-02-28T00:24:58;4.00;99.90
2465;DHT22;1244;54.326;10.074;2023-02-28T00:27:24;4.10;99.90
2465;DHT22;1244;54.326;10.074;2023-02-28T00:29:49;4.10;99.90
2465;DHT22;1244;54.326;10.074;2023-02-28T00:32:15;4.10;99.90
2465;DHT22;1244;54.326;10.074;2023-02-28T00:34:40;4.10;99.90
2465;DHT22;1244;54.326;10.074;2023-02-28T00:37:08;4.10;99.90
2465;DHT22;1244;54.326;10.074;2023-02-28T00:39:35;4.00;99.90
2465;DHT22;1244;54.326;10.074;2023-02-28T00:42:01;3.80;99.90
2465;DHT22;1244;54.326;10.074;2023-02-28T00:44:28;4.00;99.90
2465;DHT22;1244;54.326;10.074;2023-02-28T00:46:53;4.00;99.90
2465;DHT22;1244;54.326;10.074;2023-02-28T00:49:20;4.00;99.90
2465;DHT22;1244;54.326;10.074;2023-02-28T00:51:46;4.00;99.90
2465;DHT22;1244;54.326;10.074;2023-02-28T00:54:11;3.90;99.90
2465;DHT22;1244;54.326;10.074;2023-02-28T00:56:37;4.10;99.90
2465;DHT22;1244;54.326;10.074;2023-02-28T00:59:02;4.00;99.90
2465;DHT22;1244;54.326;10.074;2023-02-28T01:01:28;3.90;99.90
2465;DHT22;1244;54.326;10.074;2023-02-28T01:03:53;4.00;99.90
2465;DHT22;1244;54.326;10.074;2023-02-28T01:06:19;4.00;99.90
2465;DHT22;1244;54.326;10.074;2023-02-28T01:08:44;4.00;99.90
2465;DHT22;1244;54.326;10.074;2023-02-28T01:11:12;3.90;99.90
2465;DHT22;1244;54.326;10.074;2023-02-28T01:13:38;4.00;99.90
2465;DHT22;1244;54.326;10.074;2023-02-28T01:16:03;4.00;99.90
2465;DHT22;1244;54.326;10.074;2023-02-28T01:18:29;3.80;99.90
2465;DHT22;1244;54.326;10.074;2023-02-28T01:20:54;3.90;99.90
2465;DHT22;1244;54.326;10.074;2023-02-28T01:23:21;4.00;99.90
2465;DHT22;1244;54.326;10.074;2023-02-28T01:25:48;4.00;99.90
2465;DHT22;1244;54.326;10.074;2023-02-28T01:28:14;4.10;99.90
2465;DHT22;1244;54.326;10.074;2023-02-28T01:30:40;4.10;99.90
2465;DHT22;1244;54.326;10.074;2023-02-28T01:33:05;3.90;99.90
2465;DHT22;1244;54.326;10.074;2023-02-28T01:35:35;4.00;99.90
2465;DHT22;1244;54.326;10.074;2023-02-28T01:38:02;4.00;99.90
2465;DHT22;1244;54.326;10.074;2023-02-28T01:40:28;4.00;99.90
2465;DHT22;1244;54.326;10.074;2023-02-28T01:42:54;4.10;99.90
2465;DHT22;1244;54.326;10.074;2023-02-28T01:45:29;4.00;99.90
2465;DHT22;1244;54.326;10.074;2023-02-28T01:47:59;3.90;99.90
2465;DHT22;1244;54.326;10.074;2023-02-28T01:50:29;3.90;99.90
2465;DHT22;1244;54.326;10.074;2023-02-28T01:52:58;4.00;99.90
2465;DHT22;1244;54.326;10.074;2023-02-28T01:55:26;3.80;99.90
2465;DHT22;1244;54.326;10.074;2023-02-28T01:57:57;3.90;99.90
2465;DHT22;1244;54.326;10.074;2023-02-28T02:00:25;3.90;99.90
2465;DHT22;1244;54.326;10.074;2023-02-28T02:02:55;3.90;99.90
2465;DHT22;1244;54.326;10.074;2023-02-28T02:05:26;3.80;99.90
2465;DHT22;1244;54.326;10.074;2023-02-28T02:08:00;3.70;99.90
2465;DHT22;1244;54.326;10.074;2023-02-28T02:10:35;3.70;99.90
2465;DHT22;1244;54.326;10.074;2023-02-28T02:13:11;3.70;99.90
2465;DHT22;1244;54.326;10.074;2023-02-28T02:18:52;3.50;99.90
2465;DHT22;1244;54.326;10.074;2023-02-28T02:24:36;3.60;99.90
2465;DHT22;1244;54.326;10.074;2023-02-28T02:33:33;3.40;99.90
2465;DHT22;1244;54.326;10.074;2023-02-28T02:35:35;3.50;99.90
2465;DHT22;1244;54.326;10.074;2023-02-28T02:38:11;3.30;99.90
2465;DHT22;1244;54.326;10.074;2023-02-28T02:43:36;3.40;99.90
2465;DHT22;1244;54.326;10.074;2023-02-28T02:46:08;3.30;99.90
2465;DHT22;1244;54.326;10.074;2023-02-28T02:48:38;3.30;99.90
2465;DHT22;1244;54.326;10.074;2023-02-28T02:51:10;3.50;99.90
2465;DHT22;1244;54.326;10.074;2023-02-28T02:53:46;3.20;99.90
2465;DHT22;1244;54.326;10.074;2023-02-28T02:56:16;3.30;99.90
2465;DHT22;1244;54.326;10.074;2023-02-28T02:58:44;3.20;99.90
2465;DHT22;1244;54.326;10.074;2023-02-28T03:01:22;3.30;99.90
2465;DHT22;1244;54.326;10.074;2023-02-28T03:03:59;3.30;99.90
2465;DHT22;1244;54.326;10.074;2023-02-28T03:06:26;3.20;99.90
2465;DHT22;1244;54.326;10.074;2023-02-28T03:08:52;3.20;99.90
2465;DHT22;1244;54.326;10.074;2023-02-28T03:11:18;3.10;99.90
2465;DHT22;1244;54.326;10.074;2023-02-28T03:16:36;3.00;99.90
2465;DHT22;1244;54.326;10.074;2023-02-28T03:22:37;3.20;99.90
2465;DHT22;1244;54.326;10.074;2023-02-28T03:27:49;3.10;99.90
2465;DHT22;1244;54.326;10.074;2023-02-28T03:30:27;3.00;99.90
2465;DHT22;1244;54.326;10.074;2023-02-28T03:33:12;2.90;99.90
2465;DHT22;1244;54.326;10.074;2023-02-28T03:35:47;2.80;99.90
2465;DHT22;1244;54.326;10.074;2023-02-28T03:38:28;2.70;99.90
2465;DHT22;1244;54.326;10.074;2023-02-28T03:41:05;2.90;99.90
2465;DHT22;1244;54.326;10.074;2023-02-28T03:43:36;2.70;99.90
2465;DHT22;1244;54.326;10.074;2023-02-28T03:46:07;2.50;99.90
2465;DHT22;1244;54.326;10.074;2023-02-28T03:48:57;2.30;99.90
2465;DHT22;1244;54.326;10.074;2023-02-28T03:51:26;2.40;99.90
2465;DHT22;1244;54.326;10.074;2023-02-28T03:54:04;2.20;99.90
2465;DHT22;1244;54.326;10.074;2023-02-28T03:56:41;2.30;99.90
2465;DHT22;1244;54.326;10.074;2023-02-28T03:59:36;2.30;99.90
2465;DHT22;1244;54.326;10.074;2023-02-28T04:02:03;2.20;99.90
2465;DHT22;1244;54.326;10.074;2023-02-28T04:04:29;2.20;99.90
2465;DHT22;1244;54.326;10.074;2023-02-28T04:07:07;2.20;99.90
2465;DHT22;1244;54.326;10.074;2023-02-28T04:09:34;2.10;99.90
2465;DHT22;1244;54.326;10.074;2023-02-28T04:11:59;2.00;99.90
2465;DHT22;1244;54.326;10.074;2023-02-28T04:14:25;2.00;99.90
2465;DHT22;1244;54.326;10.074;2023-02-28T04:16:51;1.80;99.90
2465;DHT22;1244;54.326;10.074;2023-02-28T04:19:17;1.90;99.90
2465;DHT22;1244;54.326;10.074;2023-02-28T04:22:01;1.80;99.90
2465;DHT22;1244;54.326;10.074;2023-02-28T04:24:27;1.30;99.90
2465;DHT22;1244;54.326;10.074;2023-02-28T04:26:55;1.30;99.90
2465;DHT22;1244;54.326;10.074;2023-02-28T04:29:23;1.50;99.90
2465;DHT22;1244;54.326;10.074;2023-02-28T04:31:49;1.50;99.90
2465;DHT22;1244;54.326;10.074;2023-02-28T04:34:15;1.00;99.90
2465;DHT22;1244;54.326;10.074;2023-02-28T04:36:40;1.00;99.90
2465;DHT22;1244;54.326;10.074;2023-02-28T04:39:06;1.10;99.90
2465;DHT22;1244;54.326;10.074;2023-02-28T04:41:32;1.10;99.90
2465;DHT22;1244;54.326;10.074;2023-02-28T04:43:57;0.90;99.90
2465;DHT22;1244;54.326;10.074;2023-02-28T04:46:23;1.00;99.90
2465;DHT22;1244;54.326;10.074;2023-02-28T04:48:49;0.70;99.90
2465;DHT22;1244;54.326;10.074;2023-02-28T04:51:16;1.00;99.90
2465;DHT22;1244;54.326;10.074;2023-02-28T04:53:43;0.70;99.90
2465;DHT22;1244;54.326;10.074;2023-02-28T04:56:12;0.70;99.90
2465;DHT22;1244;54.326;10.074;2023-02-28T04:58:37;0.70;99.90
2465;DHT22;1244;54.326;10.074;2023-02-28T05:01:05;0.90;99.90
2465;DHT22;1244;54.326;10.074;2023-02-28T05:03:41;0.80;99.90
2465;DHT22;1244;54.326;10.074;2023-02-28T05:06:08;0.70;99.90
2465;DHT22;1244;54.326;10.074;2023-02-28T05:08:34;0.80;99.90
2465;DHT22;1244;54.326;10.074;2023-02-28T05:11:00;0.90;99.90
2465;DHT22;1244;54.326;10.074;2023-02-28T05:13:27;1.00;99.90
2465;DHT22;1244;54.326;10.074;2023-02-28T05:15:53;0.90;99.90
2465;DHT22;1244;54.326;10.074;2023-02-28T05:18:18;0.80;99.90
2465;DHT22;1244;54.326;10.074;2023-02-28T05:20:44;0.90;99.90
2465;DHT22;1244;54.326;10.074;2023-02-28T05:23:14;1.00;99.90
2465;DHT22;1244;54.326;10.074;2023-02-28T05:25:40;0.60;99.90
2465;DHT22;1244;54.326;10.074;2023-02-28T05:28:06;0.70;99.90
2465;DHT22;1244;54.326;10.074;2023-02-28T05:30:32;0.50;99.90
2465;DHT22;1244;54.326;10.074;2023-02-28T05:32:58;0.90;99.90
2465;DHT22;1244;54.326;10.074;2023-02-28T05:35:24;0.80;99.90
2465;DHT22;1244;54.326;10.074;2023-02-28T05:37:50;1.00;99.90
2465;DHT22;1244;54.326;10.074;2023-02-28T05:40:16;1.00;99.90
2465;DHT22;1244;54.326;10.074;2023-02-28T05:42:41;0.80;99.90
2465;DHT22;1244;54.326;10.074;2023-02-28T05:45:08;0.70;99.90
2465;DHT22;1244;54.326;10.074;2023-02-28T05:47:34;0.50;99.90
2465;DHT22;1244;54.326;10.074;2023-02-28T05:49:59;0.50;99.90
2465;DHT22;1244;54.326;10.074;2023-02-28T05:52:25;0.50;99.90
2465;DHT22;1244;54.326;10.074;2023-02-28T05:54:51;0.40;99.90
2465;DHT22;1244;54.326;10.074;2023-02-28T05:57:16;0.30;99.90
2465;DHT22;1244;54.326;10.074;2023-02-28T05:59:42;0.40;99.90
2465;DHT22;1244;54.326;10.074;2023-02-28T06:02:12;0.20;99.90
2465;DHT22;1244;54.326;10.074;2023-02-28T06:04:38;0.30;99.90
2465;DHT22;1244;54.326;10.074;2023-02-28T06:07:06;0.60;99.90
2465;DHT22;1244;54.326;10.074;2023-02-28T06:09:31;0.40;99.90
2465;DHT22;1244;54.326;10.074;2023-02-28T06:11:58;0.60;99.90
2465;DHT22;1244;54.326;10.074;2023-02-28T06:14:24;0.40;99.90
2465;DHT22;1244;54.326;10.074;2023-02-28T06:16:49;0.40;99.90
2465;DHT22;1244;54.326;10.074;2023-02-28T06:19:15;0.20;99.90
2465;DHT22;1244;54.326;10.074;2023-02-28T06:21:40;0.40;99.90
2465;DHT22;1244;54.326;10.074;2023-02-28T06:24:06;0.00;99.90
2465;DHT22;1244;54.326;10.074;2023-02-28T06:26:32;0.10;99.90
2465;DHT22;1244;54.326;10.074;2023-02-28T06:28:58;0.00;99.90
2465;DHT22;1244;54.326;10.074;2023-02-28T06:31:23;0.10;99.90
2465;DHT22;1244;54.326;10.074;2023-02-28T06:33:51;0.30;99.90
2465;DHT22;1244;54.326;10.074;2023-02-28T06:36:17;0.30;99.90
2465;DHT22;1244;54.326;10.074;2023-02-28T06:38:43;0.10;99.90
2465;DHT22;1244;54.326;10.074;2023-02-28T06:41:09;0.20;99.90
2465;DHT22;1244;54.326;10.074;2023-02-28T06:43:38;0.20;99.90
2465;DHT22;1244;54.326;10.074;2023-02-28T06:46:06;0.30;99.90
2465;DHT22;1244;54.326;10.074;2023-02-28T06:48:32;0.20;99.90
2465;DHT22;1244;54.326;10.074;2023-02-28T06:51:09;0.70;99.90
2465;DHT22;1244;54.326;10.074;2023-02-28T06:53:35;0.80;99.90
2465;DHT22;1244;54.326;10.074;2023-02-28T06:56:13;0.70;99.90
2465;DHT22;1244;54.326;10.074;2023-02-28T06:58:39;0.60;99.90
2465;DHT22;1244;54.326;10.074;2023-02-28T07:01:05;0.90;99.90
2465;DHT22;1244;54.326;10.074;2023-02-28T07:03:31;0.90;99.90
2465;DHT22;1244;54.326;10.074;2023-02-28T07:05:57;0.60;99.90
2465;DHT22;1244;54.326;10.074;2023-02-28T07:08:23;0.90;99.90
2465;DHT22;1244;54.326;10.074;2023-02-28T07:10:54;1.10;99.90
2465;DHT22;1244;54.326;10.074;2023-02-28T07:13:20;1.00;99.90
2465;DHT22;1244;54.326;10.074;2023-02-28T07:15:56;1.10;99.90
2465;DHT22;1244;54.326;10.074;2023-02-28T07:18:22;1.00;99.90
2465;DHT22;1244;54.326;10.074;2023-02-28T07:20:48;1.10;99.90
2465;DHT22;1244;54.326;10.074;2023-02-28T07:23:13;1.30;99.90
2465;DHT22;1244;54.326;10.074;2023-02-28T07:25:39;1.30;99.90
2465;DHT22;1244;54.326;10.074;2023-02-28T07:28:04;1.40;99.90
2465;DHT22;1244;54.326;10.074;2023-02-28T07:30:30;1.40;99.90
2465;DHT22;1244;54.326;10.074;2023-02-28T07:32:56;1.50;99.90
2465;DHT22;1244;54.326;10.074;2023-02-28T07:35:22;1.90;99.90
2465;DHT22;1244;54.326;10.074;2023-02-28T07:37:48;2.00;99.90
2465;DHT22;1244;54.326;10.074;2023-02-28T07:40:14;2.20;99.90
2465;DHT22;1244;54.326;10.074;2023-02-28T07:42:40;2.30;99.90
2465;DHT22;1244;54.326;10.074;2023-02-28T07:45:08;2.50;99.90
2465;DHT22;1244;54.326;10.074;2023-02-28T07:47:33;2.60;99.90
2465;DHT22;1244;54.326;10.074;2023-02-28T07:49:59;2.70;99.90
2465;DHT22;1244;54.326;10.074;2023-02-28T07:52:25;2.90;99.90
2465;DHT22;1244;54.326;10.074;2023-02-28T07:54:51;2.90;99.90
2465;DHT22;1244;54.326;10.074;2023-02-28T07:57:17;3.30;99.90
2465;DHT22;1244;54.326;10.074;2023-02-28T07:59:42;3.50;99.90
2465;DHT22;1244;54.326;10.074;2023-02-28T08:02:15;3.50;99.90
2465;DHT22;1244;54.326;10.074;2023-02-28T08:04:41;3.70;99.90
2465;DHT22;1244;54.326;10.074;2023-02-28T08:07:07;3.90;99.90
2465;DHT22;1244;54.326;10.074;2023-02-28T08:09:33;4.10;99.90
2465;DHT22;1244;54.326;10.074;2023-02-28T08:11:59;4.10;99.90
2465;DHT22;1244;54.326;10.074;2023-02-28T08:14:25;4.20;99.90
2465;DHT22;1244;54.326;10.074;2023-02-28T08:16:50;4.30;99.90
2465;DHT22;1244;54.326;10.074;2023-02-28T08:19:16;4.50;99.90
2465;DHT22;1244;54.326;10.074;2023-02-28T08:21:41;4.70;99.90
2465;DHT22;1244;54.326;10.074;2023-02-28T08:24:07;4.90;99.90
2465;DHT22;1244;54.326;10.074;2023-02-28T08:26:33;5.10;99.90
2465;DHT22;1244;54.326;10.074;2023-02-28T08:28:58;5.20;99.90
2465;DHT22;1244;54.326;10.074;2023-02-28T08:31:24;5.30;99.90
2465;DHT22;1244;54.326;10.074;2023-02-28T08:33:50;5.20;99.90
2465;DHT22;1244;54.326;10.074;2023-02-28T08:36:17;5.30;99.90
2465;DHT22;1244;54.326;10.074;2023-02-28T08:38:43;5.50;99.90
2465;DHT22;1244;54.326;10.074;2023-02-28T08:41:10;5.60;99.90
2465;DHT22;1244;54.326;10.074;2023-02-28T08:43:37;5.70;99.90
2465;DHT22;1244;54.326;10.074;2023-02-28T08:46:03;5.70;99.90
2465;DHT22;1244;54.326;10.074;2023-02-28T08:48:31;5.60;99.90
2465;DHT22;1244;54.326;10.074;2023-02-28T08:51:09;5.60;99.90
2465;DHT22;1244;54.326;10.074;2023-02-28T08:53:39;5.60;99.90
2465;DHT22;1244;54.326;10.074;2023-02-28T08:56:06;5.90;99.90
2465;DHT22;1244;54.326;10.074;2023-02-28T08:58:32;6.00;99.90
2465;DHT22;1244;54.326;10.074;2023-02-28T09:00:59;6.20;99.90
2465;DHT22;1244;54.326;10.074;2023-02-28T09:03:25;6.30;99.90
2465;DHT22;1244;54.326;10.074;2023-02-28T09:05:57;6.40;99.90
2465;DHT22;1244;54.326;10.074;2023-02-28T09:08:24;6.20;99.90
2465;DHT22;1244;54.326;10.074;2023-02-28T09:10:50;6.40;99.90
2465;DHT22;1244;54.326;10.074;2023-02-28T09:13:16;6.30;99.90
2465;DHT22;1244;54.326;10.074;2023-02-28T09:15:42;6.90;99.90
2465;DHT22;1244;54.326;10.074;2023-02-28T09:18:07;7.00;99.90
2465;DHT22;1244;54.326;10.074;2023-02-28T09:20:33;7.00;99.90
2465;DHT22;1244;54.326;10.074;2023-02-28T09:22:59;7.10;99.90
2465;DHT22;1244;54.326;10.074;2023-02-28T09:25:24;6.90;99.90
2465;DHT22;1244;54.326;10.074;2023-02-28T09:27:50;7.10;99.90
2465;DHT22;1244;54.326;10.074;2023-02-28T09:30:16;7.30;99.90
2465;DHT22;1244;54.326;10.074;2023-02-28T09:32:41;7.30;99.90
2465;DHT22;1244;54.326;10.074;2023-02-28T09:35:07;7.30;99.90
2465;DHT22;1244;54.326;10.074;2023-02-28T09:37:38;7.40;99.90
2465;DHT22;1244;54.326;10.074;2023-02-28T09:40:04;7.30;99.90
2465;DHT22;1244;54.326;10.074;2023-02-28T09:42:32;7.60;99.90
2465;DHT22;1244;54.326;10.074;2023-02-28T09:45:00;7.70;99.90
2465;DHT22;1244;54.326;10.074;2023-02-28T09:47:31;8.10;99.90
2465;DHT22;1244;54.326;10.074;2023-02-28T09:50:16;8.20;99.90
2465;DHT22;1244;54.326;10.074;2023-02-28T09:52:44;8.60;99.90
2465;DHT22;1244;54.326;10.074;2023-02-28T09:57:46;8.80;99.90
2465;DHT22;1244;54.326;10.074;2023-02-28T10:00:34;8.80;99.90
2465;DHT22;1244;54.326;10.074;2023-02-28T10:05:52;9.00;99.90
2465;DHT22;1244;54.326;10.074;2023-02-28T10:08:28;9.50;99.90
2465;DHT22;1244;54.326;10.074;2023-02-28T10:11:01;9.70;99.90
2465;DHT22;1244;54.326;10.074;2023-02-28T10:13:50;9.40;99.90
2465;DHT22;1244;54.326;10.074;2023-02-28T10:16:43;10.00;99.90
2465;DHT22;1244;54.326;10.074;2023-02-28T10:19:28;10.20;99.90
2465;DHT22;1244;54.326;10.074;2023-02-28T10:22:20;10.00;99.90
2465;DHT22;1244;54.326;10.074;2023-02-28T10:24:50;11.00;99.90
2465;DHT22;1244;54.326;10.074;2023-02-28T10:27:18;10.80;99.90
2465;DHT22;1244;54.326;10.074;2023-02-28T10:29:45;11.90;99.90
2465;DHT22;1244;54.326;10.074;2023-02-28T10:32:17;12.00;99.90
2465;DHT22;1244;54.326;10.074;2023-02-28T10:34:43;11.90;99.90
2465;DHT22;1244;54.326;10.074;2023-02-28T10:37:10;11.00;99.90
2465;DHT22;1244;54.326;10.074;2023-02-28T10:39:42;11.60;99.90
2465;DHT22;1244;54.326;10.074;2023-02-28T10:42:27;11.30;99.90
2465;DHT22;1244;54.326;10.074;2023-02-28T10:45:15;12.30;99.90
2465;DHT22;1244;54.326;10.074;2023-02-28T10:47:54;12.30;99.90
2465;DHT22;1244;54.326;10.074;2023-02-28T10:50:42;13.20;99.90
2465;DHT22;1244;54.326;10.074;2023-02-28T10:56:05;12.90;99.90
2465;DHT22;1244;54.326;10.074;2023-02-28T11:00:58;12.00;99.90
2465;DHT22;1244;54.326;10.074;2023-02-28T11:03:34;11.00;99.90
2465;DHT22;1244;54.326;10.074;2023-02-28T11:06:10;11.30;99.90
2465;DHT22;1244;54.326;10.074;2023-02-28T11:08:53;11.30;99.90
2465;DHT22;1244;54.326;10.074;2023-02-28T11:11:21;12.40;99.90
2465;DHT22;1244;54.326;10.074;2023-02-28T11:13:51;12.90;99.90
2465;DHT22;1244;54.326;10.074;2023-02-28T11:16:17;12.70;99.90
2465;DHT22;1244;54.326;10.074;2023-02-28T11:59:35;16.70;99.90
2465;DHT22;1244;54.326;10.074;2023-02-28T12:05:08;17.30;99.90
2465;DHT22;1244;54.326;10.074;2023-02-28T12:08:03;16.60;99.90
2465;DHT22;1244;54.326;10.074;2023-02-28T12:10:43;17.00;99.90
2465;DHT22;1244;54.326;10.074;2023-02-28T12:13:32;18.20;99.90
2465;DHT22;1244;54.326;10.074;2023-02-28T12:16:24;15.90;99.90
2465;DHT22;1244;54.326;10.074;2023-02-28T12:19:08;15.50;99.90
2465;DHT22;1244;54.326;10.074;2023-02-28T12:34:33;17.50;99.90
2465;DHT22;1244;54.326;10.074;2023-02-28T12:39:35;17.20;99.90
2465;DHT22;1244;54.326;10.074;2023-02-28T12:42:07;18.80;99.90
2465;DHT22;1244;54.326;10.074;2023-02-28T12:44:44;17.80;99.90
2465;DHT22;1244;54.326;10.074;2023-02-28T12:47:15;19.00;99.90
2465;DHT22;1244;54.326;10.074;2023-02-28T12:49:43;18.30;99.90
2465;DHT22;1244;54.326;10.074;2023-02-28T12:52:13;17.90;99.90
2465;DHT22;1244;54.326;10.074;2023-02-28T12:55:00;18.80;99.90
2465;DHT22;1244;54.326;10.074;2023-02-28T12:57:34;18.30;99.90
2465;DHT22;1244;54.326;10.074;2023-02-28T13:00:18;18.00;99.90
2465;DHT22;1244;54.326;10.074;2023-02-28T13:03:08;17.10;99.90
2465;DHT22;1244;54.326;10.074;2023-02-28T13:11:02;19.40;99.90
2465;DHT22;1244;54.326;10.074;2023-02-28T13:13:29;18.50;99.90
2465;DHT22;1244;54.326;10.074;2023-02-28T13:18:46;17.60;99.90
2465;DHT22;1244;54.326;10.074;2023-02-28T13:21:27;18.30;99.90
2465;DHT22;1244;54.326;10.074;2023-02-28T13:31:28;17.20;99.90
2465;DHT22;1244;54.326;10.074;2023-02-28T13:39:02;19.20;99.90
2465;DHT22;1244;54.326;10.074;2023-02-28T13:44:14;19.70;99.90
2465;DHT22;1244;54.326;10.074;2023-02-28T13:52:02;20.00;99.90
2465;DHT22;1244;54.326;10.074;2023-02-28T13:54:56;20.50;99.90
2465;DHT22;1244;54.326;10.074;2023-02-28T13:58:10;20.50;99.90
2465;DHT22;1244;54.326;10.074;2023-02-28T14:06:32;19.50;99.90
2465;DHT22;1244;54.326;10.074;2023-02-28T14:09:18;18.20;99.90
2465;DHT22;1244;54.326;10.074;2023-02-28T14:11:46;19.50;99.90
2465;DHT22;1244;54.326;10.074;2023-02-28T14:17:07;21.10;99.90
2465;DHT22;1244;54.326;10.074;2023-02-28T14:19:37;21.50;99.90
2465;DHT22;1244;54.326;10.074;2023-02-28T14:22:22;21.50;99.90
2465;DHT22;1244;54.326;10.074;2023-02-28T14:25:11;20.90;99.90
2465;DHT22;1244;54.326;10.074;2023-02-28T14:28:23;20.20;99.90
2465;DHT22;1244;54.326;10.074;2023-02-28T14:31:06;20.40;99.90
2465;DHT22;1244;54.326;10.074;2023-02-28T14:36:25;18.60;99.90
2465;DHT22;1244;54.326;10.074;2023-02-28T14:38:55;19.50;99.90
2465;DHT22;1244;54.326;10.074;2023-02-28T14:41:31;19.50;99.90
2465;DHT22;1244;54.326;10.074;2023-02-28T14:44:02;19.60;99.90
2465;DHT22;1244;54.326;10.074;2023-02-28T14:49:06;15.80;99.90
2465;DHT22;1244;54.326;10.074;2023-02-28T14:51:34;14.80;99.90
2465;DHT22;1244;54.326;10.074;2023-02-28T14:54:01;14.20;99.90
2465;DHT22;1244;54.326;10.074;2023-02-28T14:56:34;13.50;99.90
2465;DHT22;1244;54.326;10.074;2023-02-28T14:59:00;13.50;99.90
2465;DHT22;1244;54.326;10.074;2023-02-28T15:01:26;12.70;99.90
2465;DHT22;1244;54.326;10.074;2023-02-28T15:04:03;12.60;99.90
2465;DHT22;1244;54.326;10.074;2023-02-28T15:06:29;12.60;99.90
2465;DHT22;1244;54.326;10.074;2023-02-28T15:09:16;12.40;99.90
2465;DHT22;1244;54.326;10.074;2023-02-28T15:11:46;12.50;99.90
2465;DHT22;1244;54.326;10.074;2023-02-28T15:14:18;12.30;99.90
2465;DHT22;1244;54.326;10.074;2023-02-28T15:16:45;12.30;99.90
2465;DHT22;1244;54.326;10.074;2023-02-28T15:19:25;11.90;99.90
2465;DHT22;1244;54.326;10.074;2023-02-28T15:22:01;11.50;99.90
2465;DHT22;1244;54.326;10.074;2023-02-28T15:24:38;11.30;99.90
2465;DHT22;1244;54.326;10.074;2023-02-28T15:27:07;11.40;99.90
2465;DHT22;1244;54.326;10.074;2023-02-28T15:29:45;11.10;99.90
2465;DHT22;1244;54.326;10.074;2023-02-28T15:34:48;10.80;99.90
2465;DHT22;1244;54.326;10.074;2023-02-28T15:39:54;10.70;99.90
2465;DHT22;1244;54.326;10.074;2023-02-28T15:42:22;10.70;99.90
2465;DHT22;1244;54.326;10.074;2023-02-28T15:44:49;10.70;99.90
2465;DHT22;1244;54.326;10.074;2023-02-28T15:49:51;10.70;99.90
2465;DHT22;1244;54.326;10.074;2023-02-28T15:52:48;10.70;99.90
2465;DHT22;1244;54.326;10.074;2023-02-28T15:55:24;10.40;99.90
2465;DHT22;1244;54.326;10.074;2023-02-28T15:57:53;10.30;99.90
2465;DHT22;1244;54.326;10.074;2023-02-28T16:00:22;10.30;99.90
2465;DHT22;1244;54.326;10.074;2023-02-28T16:02:49;10.30;99.90
2465;DHT22;1244;54.326;10.074;2023-02-28T16:05:19;10.30;99.90
2465;DHT22;1244;54.326;10.074;2023-02-28T16:07:46;10.20;99.90
2465;DHT22;1244;54.326;10.074;2023-02-28T16:10:14;10.30;99.90
2465;DHT22;1244;54.326;10.074;2023-02-28T16:12:40;10.10;99.90
2465;DHT22;1244;54.326;10.074;2023-02-28T16:15:14;10.10;99.90
2465;DHT22;1244;54.326;10.074;2023-02-28T16:17:42;10.10;99.90
2465;DHT22;1244;54.326;10.074;2023-02-28T16:20:28;9.80;99.90
2465;DHT22;1244;54.326;10.074;2023-02-28T16:22:54;9.80;99.90
2465;DHT22;1244;54.326;10.074;2023-02-28T16:25:33;9.60;99.90
2465;DHT22;1244;54.326;10.074;2023-02-28T16:27:59;9.70;99.90
2465;DHT22;1244;54.326;10.074;2023-02-28T16:30:27;9.60;99.90
2465;DHT22;1244;54.326;10.074;2023-02-28T16:32:55;9.50;99.90
2465;DHT22;1244;54.326;10.074;2023-02-28T16:35:21;9.20;99.90
2465;DHT22;1244;54.326;10.074;2023-02-28T16:37:47;9.10;99.90
2465;DHT22;1244;54.326;10.074;2023-02-28T16:40:18;9.10;99.90
2465;DHT22;1244;54.326;10.074;2023-02-28T16:42:47;8.80;99.90
2465;DHT22;1244;54.326;10.074;2023-02-28T16:45:25;8.60;99.90
2465;DHT22;1244;54.326;10.074;2023-02-28T16:47:51;8.90;99.90
2465;DHT22;1244;54.326;10.074;2023-02-28T16:50:22;8.80;99.90
2465;DHT22;1244;54.326;10.074;2023-02-28T16:52:48;8.70;99.90
2465;DHT22;1244;54.326;10.074;2023-02-28T16:55:15;8.70;99.90
2465;DHT22;1244;54.326;10.074;2023-02-28T16:57:41;8.60;99.90
2465;DHT22;1244;54.326;10.074;2023-02-28T17:00:10;8.90;99.90
2465;DHT22;1244;54.326;10.074;2023-02-28T17:02:38;8.50;99.90
2465;DHT22;1244;54.326;10.074;2023-02-28T17:05:04;8.30;99.90
2465;DHT22;1244;54.326;10.074;2023-02-28T17:07:29;8.20;99.90
2465;DHT22;1244;54.326;10.074;2023-02-28T17:09:55;8.30;99.90
2465;DHT22;1244;54.326;10.074;2023-02-28T17:12:20;7.90;99.90
2465;DHT22;1244;54.326;10.074;2023-02-28T17:14:46;7.70;99.90
2465;DHT22;1244;54.326;10.074;2023-02-28T17:17:18;7.50;99.90
2465;DHT22;1244;54.326;10.074;2023-02-28T17:19:45;7.80;99.90
2465;DHT22;1244;54.326;10.074;2023-02-28T17:22:10;7.90;99.90
2465;DHT22;1244;54.326;10.074;2023-02-28T17:24:36;7.90;99.90
2465;DHT22;1244;54.326;10.074;2023-02-28T17:27:03;7.70;99.90
2465;DHT22;1244;54.326;10.074;2023-02-28T17:29:28;7.70;99.90
2465;DHT22;1244;54.326;10.074;2023-02-28T17:31:54;7.70;99.90
2465;DHT22;1244;54.326;10.074;2023-02-28T17:34:20;7.50;99.90
2465;DHT22;1244;54.326;10.074;2023-02-28T17:36:48;7.60;99.90
2465;DHT22;1244;54.326;10.074;2023-02-28T17:39:16;7.60;99.90
2465;DHT22;1244;54.326;10.074;2023-02-28T17:41:46;7.60;99.90
2465;DHT22;1244;54.326;10.074;2023-02-28T17:44:12;7.50;99.90
2465;DHT22;1244;54.326;10.074;2023-02-28T17:46:37;7.50;99.90
2465;DHT22;1244;54.326;10.074;2023-02-28T17:49:03;7.30;99.90
2465;DHT22;1244;54.326;10.074;2023-02-28T17:51:29;7.10;99.90
2465;DHT22;1244;54.326;10.074;2023-02-28T17:53:55;7.00;99.90
2465;DHT22;1244;54.326;10.074;2023-02-28T17:56:24;6.90;99.90
2465;DHT22;1244;54.326;10.074;2023-02-28T17:58:51;6.80;99.90
2465;DHT22;1244;54.326;10.074;2023-02-28T18:01:17;6.70;99.90
2465;DHT22;1244;54.326;10.074;2023-02-28T18:03:43;6.60;99.90
2465;DHT22;1244;54.326;10.074;2023-02-28T18:06:28;6.50;99.90
2465;DHT22;1244;54.326;10.074;2023-02-28T18:08:56;6.80;99.90
2465;DHT22;1244;54.326;10.074;2023-02-28T18:11:23;6.50;99.90
2465;DHT22;1244;54.326;10.074;2023-02-28T18:13:50;6.20;99.90
2465;DHT22;1244;54.326;10.074;2023-02-28T18:16:17;6.10;99.90
2465;DHT22;1244;54.326;10.074;2023-02-28T18:18:43;6.10;99.90
2465;DHT22;1244;54.326;10.074;2023-02-28T18:21:10;6.10;99.90
2465;DHT22;1244;54.326;10.074;2023-02-28T18:23:37;6.00;99.90
2465;DHT22;1244;54.326;10.074;2023-02-28T18:26:07;6.00;99.90
2465;DHT22;1244;54.326;10.074;2023-02-28T18:28:33;6.00;99.90
2465;DHT22;1244;54.326;10.074;2023-02-28T18:31:08;6.10;99.90
2465;DHT22;1244;54.326;10.074;2023-02-28T18:33:34;6.00;99.90
2465;DHT22;1244;54.326;10.074;2023-02-28T18:36:00;6.00;99.90
2465;DHT22;1244;54.326;10.074;2023-02-28T18:38:26;5.80;99.90